Time;durP1;ratioP1;P1;durP2;ratioP2;P2;SDS_P1;SDS_P2;PMS_P1;PMS_P2;Temp;Humidity;BMP_temperature;BMP_pressure;BME280_temperature;BME280_humidity;BME280_pressure;Samples;Min_cycle;Max_cycle;Signal;HPM_P1;HPM_P2
2022/05/11 00:00:01;;;;;;;4.20;3.77;;;;;;;12.85;63.53;96364.47;10322119;28;97087;-68
2022/05/11 00:05:05;;;;;;;6.43;3.78;;;;;;;12.94;63.09;96357.47;10317675;28;97606;-68
2022/05/11 00:10:12;;;;;;;5.25;4.15;;;;;;;12.93;63.87;96361.09;10315538;28;96904;-68
2022/05/11 00:15:18;;;;;;;5.63;3.50;;;;;;;12.58;65.37;96349.81;10326339;28;97488;-68
2022/05/11 00:20:22;;;;;;;5.20;4.22;;;;;;;12.30;66.27;96354.41;10317929;28;97777;-68
2022/05/11 00:25:28;;;;;;;4.75;3.97;;;;;;;12.26;66.30;96345.22;10325482;28;96817;-68
2022/05/11 00:30:31;;;;;;;4.57;3.65;;;;;;;12.43;65.83;96339.09;10327575;28;97745;-68
2022/05/11 00:35:35;;;;;;;4.28;3.72;;;;;;;12.55;65.17;96337.00;10322243;28;96781;-69
2022/05/11 00:40:46;;;;;;;5.50;3.50;;;;;;;12.52;65.50;96337.31;10330120;28;102415;-68
2022/05/11 00:45:51;;;;;;;4.15;3.60;;;;;;;12.58;64.35;96336.69;10317316;28;97741;-68
2022/05/11 00:50:53;;;;;;;;;;;;;;;12.57;63.88;96331.63;10325302;28;96950;-68
2022/05/11 00:56:01;;;;;;;4.80;3.55;;;;;;;12.32;65.28;96326.28;10328638;28;99447;-68
2022/05/11 01:01:04;;;;;;;4.63;4.10;;;;;;;11.99;67.31;96317.38;10322452;28;98950;-68
2022/05/11 01:06:09;;;;;;;4.88;3.95;;;;;;;11.81;67.77;96322.69;10328662;28;96781;-68
2022/05/11 01:11:14;;;;;;;4.07;3.67;;;;;;;11.80;67.62;96321.03;10324469;28;96870;-68
2022/05/11 01:16:17;;;;;;;4.47;3.85;;;;;;;11.92;67.07;96315.41;10322708;28;97772;-68
2022/05/11 01:21:24;;;;;;;4.43;3.87;;;;;;;12.11;66.57;96319.63;10316033;28;97004;-67
2022/05/11 01:26:33;;;;;;;4.70;3.80;;;;;;;12.19;65.49;96310.16;10331836;28;96853;-68
2022/05/11 01:31:35;;;;;;;4.97;3.85;;;;;;;12.11;65.94;96308.31;10325401;28;97683;-68
2022/05/11 01:36:38;;;;;;;5.75;4.10;;;;;;;12.00;66.73;96306.78;10313327;28;102465;-68
2022/05/11 01:41:45;;;;;;;3.40;3.08;;;;;;;11.88;67.20;96310.63;10326303;28;96830;-68
2022/05/11 01:46:49;;;;;;;4.15;3.50;;;;;;;11.88;66.92;96305.38;10312641;28;96873;-68
2022/05/11 01:51:52;;;;;;;5.15;4.32;;;;;;;11.81;67.67;96306.97;10314565;28;97118;-68
2022/05/11 01:56:56;;;;;;;5.22;4.15;;;;;;;11.64;68.43;96309.50;10317557;28;97531;-68
2022/05/11 02:01:59;;;;;;;5.60;4.70;;;;;;;11.68;68.11;96313.44;10305782;28;97129;-68
2022/05/11 02:12:23;;;;;;;5.05;3.83;;;;;;;11.73;67.90;96316.44;10324229;28;97912;-68
2022/05/11 02:17:26;;;;;;;6.90;4.37;;;;;;;11.51;68.64;96311.69;10323234;28;99477;-68
2022/05/11 02:22:29;;;;;;;4.85;4.30;;;;;;;11.50;69.21;96312.66;10323302;28;96878;-68
2022/05/11 02:27:34;;;;;;;4.10;3.70;;;;;;;11.60;67.85;96310.75;10329671;28;96853;-68
2022/05/11 02:32:38;;;;;;;6.28;4.30;;;;;;;11.53;68.81;96314.97;10328487;28;98019;-68
2022/05/11 02:37:42;;;;;;;5.93;4.50;;;;;;;11.35;69.72;96313.19;10318547;28;100265;-68
2022/05/11 02:42:46;;;;;;;6.40;4.43;;;;;;;11.12;71.03;96312.81;10325737;28;99238;-68
2022/05/11 02:47:51;;;;;;;5.90;4.37;;;;;;;11.23;70.77;96313.56;10318389;28;96891;-68
2022/05/11 02:52:54;;;;;;;5.25;4.15;;;;;;;11.29;69.81;96318.97;10315359;28;97799;-68
2022/05/11 02:57:58;;;;;;;5.35;4.85;;;;;;;11.02;71.62;96316.47;10324198;28;97036;-68
2022/05/11 03:03:03;;;;;;;5.10;4.47;;;;;;;10.85;72.01;96315.47;10309088;28;96953;-68
2022/05/11 03:08:06;;;;;;;5.50;4.80;;;;;;;11.01;71.75;96309.56;10319782;28;98124;-67
2022/05/11 03:13:10;;;;;;;6.50;5.03;;;;;;;11.12;70.71;96317.19;10317500;28;96798;-68
2022/05/11 03:18:13;;;;;;;6.93;4.43;;;;;;;11.20;70.72;96314.66;10319109;28;99012;-68
2022/05/11 03:23:16;;;;;;;5.45;4.70;;;;;;;11.11;71.11;96311.16;10313836;28;97031;-68
2022/05/11 03:28:21;;;;;;;6.05;4.63;;;;;;;11.14;71.21;96312.66;10325352;28;96880;-67
2022/05/11 03:38:44;;;;;;;7.32;5.25;;;;;;;10.91;71.71;96305.25;10322545;28;97651;-68
2022/05/11 03:43:48;;;;;;;5.72;4.72;;;;;;;10.64;72.74;96316.56;10319215;28;99429;-68
2022/05/11 03:48:51;;;;;;;4.77;4.30;;;;;;;10.63;73.13;96312.28;10333976;28;99005;-68
2022/05/11 03:53:54;;;;;;;8.00;5.07;;;;;;;10.49;73.20;96324.03;10327409;28;103044;-68
2022/05/11 03:58:58;;;;;;;7.85;5.80;;;;;;;10.43;74.06;96316.81;10325327;28;98749;-68
2022/05/11 04:04:01;;;;;;;6.10;4.60;;;;;;;10.43;74.56;96316.81;10317491;28;96911;-68
2022/05/11 04:09:04;;;;;;;5.55;4.97;;;;;;;10.58;74.52;96315.34;10332379;28;97062;-68
2022/05/11 04:14:08;;;;;;;5.28;4.78;;;;;;;10.74;73.32;96319.13;10315066;28;98067;-68
2022/05/11 04:19:11;;;;;;;7.33;4.80;;;;;;;10.75;73.14;96325.97;10318440;28;97215;-68
2022/05/11 04:24:14;;;;;;;5.88;4.85;;;;;;;10.66;73.57;96326.84;10313840;28;97611;-68
2022/05/11 04:29:18;;;;;;;7.32;5.00;;;;;;;10.54;74.33;96334.88;10316538;28;96974;-68
2022/05/11 04:34:28;;;;;;;5.47;4.97;;;;;;;10.57;74.73;96329.38;10323134;28;96933;-66
2022/05/11 04:39:31;;;;;;;6.45;4.53;;;;;;;10.73;74.41;96335.75;10330863;28;96912;-68
2022/05/11 04:44:35;;;;;;;5.28;4.78;;;;;;;10.79;74.02;96329.91;10322541;28;97951;-68
2022/05/11 04:49:39;;;;;;;6.22;4.85;;;;;;;10.96;73.25;96331.78;10327316;28;96857;-68
2022/05/11 04:54:44;;;;;;;6.60;4.90;;;;;;;10.98;73.13;96335.06;10332187;28;97708;-68
2022/05/11 04:59:49;;;;;;;;;;;;;;;11.01;72.75;96331.31;10329634;28;96880;-68
2022/05/11 05:04:52;;;;;;;6.00;5.40;;;;;;;11.10;72.58;96337.44;10326107;28;96922;-68
2022/05/11 05:09:55;;;;;;;7.93;4.50;;;;;;;11.16;72.48;96339.47;10330974;28;97139;-69
2022/05/11 05:14:59;;;;;;;5.10;4.38;;;;;;;11.27;72.24;96352.31;10327513;28;99075;-67
2022/05/11 05:20:02;;;;;;;6.73;4.90;;;;;;;11.45;71.40;96348.91;10327647;28;96906;-68
2022/05/11 05:25:07;;;;;;;5.53;4.88;;;;;;;11.57;71.50;96354.72;10322788;28;96808;-67
2022/05/11 05:35:32;;;;;;;5.32;4.72;;;;;;;11.83;70.63;96368.69;10311460;28;98304;-67
2022/05/11 05:40:36;;;;;;;5.55;4.78;;;;;;;11.95;70.15;96361.38;10317362;28;100639;-68
2022/05/11 05:45:41;;;;;;;5.80;5.28;;;;;;;12.11;70.58;96365.94;10311438;28;101462;-68
2022/05/11 05:50:44;;;;;;;8.38;5.53;;;;;;;12.34;70.02;96371.47;10332608;28;96901;-68
2022/05/11 05:55:48;;;;;;;8.57;4.72;;;;;;;12.48;69.63;96370.06;10328704;28;98018;-68
2022/05/11 06:00:52;;;;;;;5.80;4.63;;;;;;;12.62;69.72;96368.66;10322338;28;96961;-68
2022/05/11 06:05:55;;;;;;;6.10;5.00;;;;;;;12.70;69.17;96373.94;10323858;28;97248;-68
2022/05/11 06:10:58;;;;;;;5.38;4.28;;;;;;;12.84;68.34;96372.50;10318345;28;98293;-68
2022/05/11 06:16:02;;;;;;;8.35;4.57;;;;;;;13.07;68.89;96379.84;10318183;28;99475;-67
2022/05/11 06:21:07;;;;;;;6.35;4.50;;;;;;;13.25;68.55;96380.50;10307074;28;99344;-69
2022/05/11 06:26:10;;;;;;;5.63;4.50;;;;;;;13.61;68.01;96373.19;10316564;28;100894;-69
2022/05/11 06:31:15;;;;;;;5.72;4.18;;;;;;;13.92;67.88;96377.78;10315115;28;99270;-69
2022/05/11 06:36:18;;;;;;;7.03;4.82;;;;;;;14.22;67.41;96372.81;10319661;28;98814;-68
2022/05/11 06:41:25;;;;;;;5.93;4.00;;;;;;;14.46;68.35;96379.84;10311336;28;96967;-68
2022/05/11 06:46:29;;;;;;;7.47;4.50;;;;;;;14.64;67.03;96374.38;10308222;28;96823;-69
2022/05/11 06:51:32;;;;;;;5.15;4.07;;;;;;;14.91;66.41;96378.38;10314351;28;96828;-68
2022/05/11 07:02:03;;;;;;;5.30;3.50;;;;;;;15.36;64.36;96381.28;10308565;28;96994;-69
2022/05/11 07:07:07;;;;;;;6.53;3.80;;;;;;;15.59;64.04;96375.22;10311968;28;98419;-68
2022/05/11 07:12:20;;;;;;;4.97;3.78;;;;;;;15.77;63.56;96378.41;10311420;28;100906;-69
2022/05/11 07:17:33;;;;;;;6.22;3.80;;;;;;;15.94;63.18;96372.97;10315711;28;97086;-68
2022/05/11 07:22:38;;;;;;;4.90;3.70;;;;;;;15.99;62.70;96375.91;10315837;28;96893;-70
2022/05/11 07:27:42;;;;;;;;;;;;;;;16.05;62.76;96369.91;10309283;28;97163;-69
2022/05/11 07:32:47;;;;;;;5.05;3.45;;;;;;;16.16;62.00;96372.13;10314533;28;96776;-69
2022/05/11 07:37:50;;;;;;;4.50;3.67;;;;;;;16.33;61.97;96369.31;10316019;28;100749;-69
2022/05/11 07:42:54;;;;;;;3.85;3.35;;;;;;;16.46;60.94;96372.13;10338768;28;96737;-69
2022/05/11 07:47:59;;;;;;;5.82;4.05;;;;;;;16.58;60.94;96370.69;10347402;28;97072;-70
2022/05/11 07:53:02;;;;;;;4.15;3.75;;;;;;;16.77;61.05;96371.19;10343571;28;98293;-69
2022/05/11 08:03:26;;;;;;;4.72;3.13;;;;;;;17.06;60.40;96365.03;10343702;28;96939;-69
2022/05/11 08:08:31;;;;;;;5.47;3.33;;;;;;;17.28;60.00;96365.88;10344416;28;96782;-69
2022/05/11 08:13:34;;;;;;;4.97;3.78;;;;;;;17.48;59.91;96360.00;10342888;28;96836;-69
2022/05/11 08:18:38;;;;;;;5.22;3.55;;;;;;;17.62;59.32;96356.47;10341243;28;96868;-69
2022/05/11 08:23:41;;;;;;;4.28;3.88;;;;;;;17.70;59.26;96355.53;10343571;28;97046;-69
2022/05/11 08:28:47;;;;;;;4.18;3.60;;;;;;;17.75;59.18;96353.97;10342206;28;96985;-68
2022/05/11 08:33:51;;;;;;;4.93;3.45;;;;;;;17.94;59.07;96355.16;10341033;28;97219;-69
2022/05/11 08:39:13;;;;;;;4.20;3.28;;;;;;;18.14;58.63;96349.22;10338127;28;96837;-69
2022/05/11 08:44:18;;;;;;;4.47;3.20;;;;;;;18.22;58.28;96340.31;10342704;28;99930;-70
2022/05/11 08:49:30;;;;;;;4.88;3.70;;;;;;;18.35;57.63;96343.03;10340983;28;100203;-70
2022/05/11 08:54:44;;;;;;;4.93;3.47;;;;;;;18.59;56.73;96340.94;10322826;28;96793;-69
2022/05/11 08:59:47;;;;;;;4.28;3.03;;;;;;;18.79;56.81;96336.56;10344041;28;96732;-69
2022/05/11 09:04:54;;;;;;;4.03;3.03;;;;;;;18.87;55.27;96338.25;10341674;28;99563;-69
2022/05/11 09:09:57;;;;;;;5.47;3.17;;;;;;;18.93;55.46;96336.66;10337689;28;96961;-69
2022/05/11 09:15:01;;;;;;;3.50;3.05;;;;;;;19.04;55.48;96338.72;10344319;28;96855;-69
2022/05/11 09:20:10;;;;;;;4.68;3.10;;;;;;;19.18;54.93;96337.75;10340611;28;97284;-69
2022/05/11 09:25:21;;;;;;;4.10;2.80;;;;;;;19.33;53.36;96331.47;10337090;28;96802;-69
2022/05/11 09:30:30;;;;;;;4.25;2.63;;;;;;;19.59;52.30;96331.53;10341535;28;96929;-68
2022/05/11 09:35:36;;;;;;;3.63;2.90;;;;;;;19.76;51.74;96328.47;10342289;28;96793;-70
2022/05/11 09:40:58;;;;;;;6.78;3.20;;;;;;;19.92;50.51;96330.75;10340185;28;96973;-69
2022/05/11 09:46:02;;;;;;;2.95;2.58;;;;;;;20.08;50.56;96323.38;10336456;28;96956;-69
2022/05/11 09:51:24;;;;;;;2.92;2.42;;;;;;;20.29;50.05;96330.31;10343007;28;96959;-69
2022/05/11 09:56:30;;;;;;;4.15;2.50;;;;;;;20.30;48.88;96327.44;10340030;28;96918;-68
2022/05/11 10:01:34;;;;;;;4.60;2.70;;;;;;;20.48;49.50;96328.66;10339660;28;96730;-69
2022/05/11 10:06:47;;;;;;;3.95;2.92;;;;;;;20.59;48.50;96316.56;10337838;28;97458;-69
2022/05/11 10:11:51;;;;;;;2.92;2.30;;;;;;;20.66;47.62;96310.22;10341024;28;97050;-69
2022/05/11 10:22:26;;;;;;;4.47;2.83;;;;;;;20.93;46.61;96305.66;10336251;28;96762;-70
2022/05/11 10:27:35;;;;;;;4.50;2.88;;;;;;;21.20;45.72;96299.38;10339342;28;96775;-69
2022/05/11 10:32:51;;;;;;;3.88;2.40;;;;;;;21.29;45.27;96303.41;10338276;28;96980;-69
2022/05/11 10:38:14;;;;;;;3.28;2.42;;;;;;;21.37;44.76;96300.50;10337973;28;96828;-69
2022/05/11 10:43:33;;;;;;;2.95;2.30;;;;;;;21.55;44.64;96280.34;10336480;28;97175;-69
2022/05/11 10:49:12;;;;;;;3.65;2.47;;;;;;;21.67;44.33;96278.66;10323776;28;96861;-69
2022/05/11 10:54:29;;;;;;;2.78;2.28;;;;;;;21.80;44.77;96272.41;10334876;28;96843;-69
2022/05/11 11:00:07;;;;;;;3.13;2.38;;;;;;;22.01;44.33;96265.88;10337954;28;96905;-69
2022/05/11 11:05:17;;;;;;;2.60;2.20;;;;;;;22.07;43.49;96257.00;10334328;28;96905;-69
2022/05/11 11:10:29;;;;;;;3.05;2.50;;;;;;;22.27;43.45;96258.69;10336158;28;98068;-69
2022/05/11 11:15:37;;;;;;;4.47;2.20;;;;;;;22.41;43.30;96250.31;10336718;28;96899;-69
2022/05/11 11:20:45;;;;;;;5.32;2.45;;;;;;;22.51;42.92;96244.50;10340316;28;96787;-69
2022/05/11 11:25:52;;;;;;;3.90;2.55;;;;;;;22.59;42.37;96233.53;10337665;28;99749;-69
2022/05/11 11:31:17;;;;;;;2.67;2.20;;;;;;;22.75;42.56;96233.94;10333355;28;96707;-69
2022/05/11 11:36:30;;;;;;;3.83;2.40;;;;;;;22.83;42.66;96225.66;10334714;28;97215;-70
2022/05/11 11:42:05;;;;;;;2.65;2.40;;;;;;;23.03;42.45;96229.91;10339972;28;96777;-69
2022/05/11 11:47:44;;;;;;;2.90;2.33;;;;;;;23.18;42.29;96214.31;10337323;28;99709;-69
2022/05/11 11:52:48;;;;;;;3.50;2.40;;;;;;;23.34;42.23;96216.34;10343704;28;96739;-69
2022/05/11 11:57:57;;;;;;;3.90;2.45;;;;;;;23.52;41.50;96204.78;10340670;28;96752;-68
2022/05/11 12:03:00;;;;;;;5.53;2.50;;;;;;;23.60;40.75;96208.94;10346816;28;96852;-69
2022/05/11 12:19:09;;;;;;;4.60;2.22;;;;;;;23.85;39.93;96170.59;10327115;28;96881;-69
2022/05/11 12:24:22;;;;;;;3.60;2.10;;;;;;;24.02;37.98;96174.16;10339198;28;96834;-69
2022/05/11 12:34:49;;;;;;;2.85;2.38;;;;;;;24.38;37.52;96153.53;10337073;28;96730;-69
2022/05/11 12:39:57;;;;;;;3.75;2.47;;;;;;;24.51;38.04;96157.81;10340191;28;96937;-69
2022/05/11 12:45:02;;;;;;;2.70;2.13;;;;;;;24.70;36.47;96161.09;10345883;28;97345;-69
2022/05/11 12:50:07;;;;;;;2.63;2.10;;;;;;;24.83;36.29;96158.16;10339071;28;97306;-69
2022/05/11 12:55:10;;;;;;;4.70;2.28;;;;;;;24.99;36.10;96153.91;10338798;28;96866;-69
2022/05/11 13:00:18;;;;;;;3.25;2.25;;;;;;;25.03;36.12;96143.53;10343755;28;96787;-70
2022/05/11 13:05:21;;;;;;;3.28;2.20;;;;;;;25.19;36.49;96150.75;10342319;28;103071;-70
2022/05/11 13:10:30;;;;;;;3.10;2.40;;;;;;;25.40;36.29;96148.41;10340386;28;97928;-69
2022/05/11 13:15:39;;;;;;;2.20;1.90;;;;;;;25.56;36.33;96134.22;10339876;28;96723;-69
2022/05/11 13:20:45;;;;;;;3.58;2.30;;;;;;;25.75;36.16;96141.97;10342649;28;96930;-70
2022/05/11 13:25:50;;;;;;;2.47;2.28;;;;;;;25.79;36.02;96129.75;10341808;28;96805;-69
2022/05/11 13:30:57;;;;;;;4.10;2.40;;;;;;;25.93;35.60;96120.28;10337205;28;96715;-70
2022/05/11 13:36:22;;;;;;;3.90;2.40;;;;;;;26.15;34.83;96125.66;10344317;28;97279;-69
2022/05/11 13:41:29;;;;;;;4.85;2.17;;;;;;;26.22;34.90;96114.72;10338556;28;97003;-69
2022/05/11 13:51:58;;;;;;;3.78;1.95;;;;;;;26.50;33.39;96118.28;10334811;28;100055;-69
2022/05/11 13:57:03;;;;;;;3.83;2.03;;;;;;;26.48;34.05;96105.13;10343646;28;96896;-69
2022/05/11 14:02:08;;;;;;;5.20;2.28;;;;;;;26.70;34.24;96115.81;10340068;28;96891;-69
2022/05/11 14:07:13;;;;;;;2.75;2.00;;;;;;;26.95;34.08;96114.47;10336730;28;96759;-69
2022/05/11 14:12:16;;;;;;;4.13;2.00;;;;;;;27.47;31.68;96112.97;10340827;28;96880;-69
2022/05/11 14:17:24;;;;;;;3.10;1.60;;;;;;;28.27;30.81;96115.56;10339667;28;96837;-69
2022/05/11 14:22:28;;;;;;;2.28;1.75;;;;;;;29.47;28.17;96118.16;10338361;28;96723;-70
2022/05/11 14:27:31;;;;;;;3.20;1.92;;;;;;;30.36;27.44;96107.72;10338883;28;96718;-70
2022/05/11 14:32:42;;;;;;;3.78;1.73;;;;;;;30.78;26.80;96106.41;10341247;28;96781;-71
2022/05/11 14:37:46;;;;;;;3.75;1.92;;;;;;;31.26;26.47;96107.66;10339485;28;97243;-70
2022/05/11 14:42:55;;;;;;;1.85;1.65;;;;;;;32.28;26.42;96095.81;10335216;28;97039;-70
2022/05/11 14:48:03;;;;;;;2.25;1.70;;;;;;;32.48;24.21;96093.94;10342167;28;96932;-70
2022/05/11 14:53:06;;;;;;;3.45;1.73;;;;;;;32.72;23.97;96083.88;10338128;28;96986;-70
2022/05/11 15:03:31;;;;;;;2.63;1.40;;;;;;;32.73;22.92;96079.25;10338362;28;97653;-70
2022/05/11 15:08:34;;;;;;;2.10;1.50;;;;;;;32.86;23.92;96083.13;10339797;28;96869;-70
2022/05/11 15:13:44;;;;;;;3.30;1.60;;;;;;;33.08;23.59;96083.34;10337826;28;96997;-70
2022/05/11 15:18:48;;;;;;;3.40;1.48;;;;;;;33.41;23.49;96077.91;10334677;28;96759;-70
2022/05/11 15:23:51;;;;;;;3.88;1.40;;;;;;;33.72;23.10;96077.34;10344545;28;96948;-70
2022/05/11 15:28:55;;;;;;;1.83;1.30;;;;;;;34.14;23.10;96078.19;10345279;28;97103;-70
2022/05/11 15:33:59;;;;;;;3.13;1.30;;;;;;;34.24;22.96;96076.38;10339418;28;96921;-68
2022/05/11 15:39:03;;;;;;;2.13;1.50;;;;;;;34.42;23.45;96067.31;10337726;28;97497;-68
2022/05/11 15:44:08;;;;;;;4.25;1.45;;;;;;;34.90;22.84;96066.75;10350008;28;96809;-70
2022/05/11 15:49:13;;;;;;;3.78;1.52;;;;;;;34.95;22.10;96069.31;10351461;28;97238;-70
2022/05/11 15:54:19;;;;;;;3.53;1.20;;;;;;;35.09;22.45;96087.47;10345209;28;96779;-70
2022/05/11 15:59:22;;;;;;;2.53;1.20;;;;;;;35.35;22.41;96090.38;10344411;28;99868;-70
2022/05/11 16:04:27;;;;;;;1.98;1.58;;;;;;;35.23;22.08;96085.50;10341292;28;97361;-69
2022/05/11 16:09:30;;;;;;;2.67;1.35;;;;;;;34.83;21.59;96079.94;10342613;28;96821;-70
2022/05/11 16:14:33;;;;;;;2.45;1.23;;;;;;;34.74;21.68;96087.22;10343941;28;97141;-70
2022/05/11 16:19:52;;;;;;;3.30;1.20;;;;;;;34.83;21.30;96090.78;10340104;28;96797;-70
2022/05/11 16:24:55;;;;;;;1.70;1.10;;;;;;;34.81;21.20;96101.16;10338221;28;97843;-70
2022/05/11 16:30:00;;;;;;;3.53;1.13;;;;;;;34.80;20.83;96086.00;10342181;28;96919;-71
2022/05/11 16:35:05;;;;;;;2.05;1.60;;;;;;;34.48;21.27;96082.34;10341864;28;96958;-71
2022/05/11 16:40:09;;;;;;;3.10;1.30;;;;;;;34.60;21.77;96084.53;10341259;28;96813;-69
2022/05/11 16:45:15;;;;;;;4.00;1.48;;;;;;;34.55;21.64;96088.13;10343557;28;96740;-70
2022/05/11 16:50:20;;;;;;;3.28;1.40;;;;;;;34.70;21.53;96088.94;10342331;28;99850;-70
2022/05/11 16:55:26;;;;;;;2.33;1.25;;;;;;;34.85;21.72;96095.91;10340260;28;96945;-70
2022/05/11 17:00:29;;;;;;;2.63;1.80;;;;;;;34.65;21.65;96091.75;10337146;28;96794;-68
2022/05/11 17:05:33;;;;;;;2.92;1.30;;;;;;;34.29;21.68;96082.47;10340295;28;97090;-68
2022/05/11 17:10:37;;;;;;;3.55;1.88;;;;;;;34.29;21.97;96090.59;10332410;28;96954;-70
2022/05/11 17:15:52;;;;;;;3.20;2.25;;;;;;;34.40;22.06;96099.31;10339427;28;96826;-66
2022/05/11 17:20:59;;;;;;;3.40;1.50;;;;;;;34.54;22.23;96097.41;10339080;28;96797;-70
2022/05/11 17:26:03;;;;;;;3.13;1.52;;;;;;;34.17;22.67;96104.69;10340941;28;96940;-70
2022/05/11 17:31:06;;;;;;;2.83;1.50;;;;;;;33.86;22.88;96106.38;10336854;28;96990;-67
2022/05/11 17:36:10;;;;;;;2.58;1.70;;;;;;;33.81;22.93;96115.38;10343156;28;99479;-71
2022/05/11 17:41:13;;;;;;;2.33;1.70;;;;;;;33.72;22.96;96112.56;10341287;28;96711;-68
2022/05/11 17:46:17;;;;;;;4.22;2.50;;;;;;;33.21;23.30;96122.38;10335399;28;97019;-67
2022/05/11 17:51:22;;;;;;;3.50;1.52;;;;;;;31.98;24.49;96110.50;10338934;28;98900;-68
2022/05/11 17:56:25;;;;;;;3.22;2.05;;;;;;;30.55;25.66;96115.16;10339297;28;99872;-71
2022/05/11 18:01:28;;;;;;;2.88;1.90;;;;;;;29.19;26.79;96120.31;10338210;28;98490;-70
2022/05/11 18:06:32;;;;;;;;;;;;;;;28.35;27.18;96109.69;10339633;28;97059;-68
2022/05/11 18:11:35;;;;;;;2.13;1.27;;;;;;;27.55;27.76;96122.44;10339273;28;96814;-69
2022/05/11 18:16:38;;;;;;;5.40;1.50;;;;;;;26.67;29.05;96132.41;10338983;28;97132;-68
2022/05/11 18:21:43;;;;;;;1.67;1.23;;;;;;;26.11;29.72;96137.09;10336694;28;96985;-69
2022/05/11 18:26:46;;;;;;;2.47;1.70;;;;;;;25.68;30.36;96144.03;10336559;28;97830;-69
2022/05/11 18:31:49;;;;;;;4.40;1.50;;;;;;;25.43;30.38;96147.91;10340142;28;96882;-68
2022/05/11 18:36:53;;;;;;;4.60;2.20;;;;;;;25.11;31.13;96158.34;10353041;28;97271;-67
2022/05/11 18:41:57;;;;;;;3.78;1.55;;;;;;;24.70;31.94;96163.78;10336253;28;101685;-71
2022/05/11 18:47:00;;;;;;;6.90;1.97;;;;;;;24.45;32.28;96166.75;10334163;28;99837;-69
2022/05/11 18:52:05;;;;;;;4.60;1.60;;;;;;;24.20;32.60;96177.75;10330431;28;99841;-70
2022/05/11 18:57:08;;;;;;;3.22;2.17;;;;;;;23.89;33.41;96177.06;10333802;28;96742;-69
2022/05/11 19:02:11;;;;;;;3.50;2.27;;;;;;;23.56;34.05;96195.25;10337298;28;97935;-69
2022/05/11 19:07:15;;;;;;;4.43;1.77;;;;;;;23.28;34.40;96192.47;10335083;28;97021;-69
2022/05/11 19:12:18;;;;;;;5.15;1.73;;;;;;;23.03;34.79;96206.75;10333939;28;96856;-69
2022/05/11 19:17:21;;;;;;;5.30;2.70;;;;;;;22.84;34.99;96199.81;10336677;28;97229;-68
2022/05/11 19:22:25;;;;;;;7.03;3.15;;;;;;;22.70;35.49;96217.84;10336712;28;99509;-66
2022/05/11 19:27:29;;;;;;;2.20;1.60;;;;;;;22.39;35.72;96216.97;10337262;28;96834;-68
2022/05/11 19:32:32;;;;;;;4.40;1.58;;;;;;;22.05;36.61;96219.19;10336080;28;96970;-67
2022/05/11 19:37:38;;;;;;;5.07;1.70;;;;;;;21.83;36.99;96224.94;10334344;28;96755;-69
2022/05/11 19:42:41;;;;;;;4.97;1.65;;;;;;;21.56;37.50;96239.47;10317432;28;97000;-68
2022/05/11 19:47:45;;;;;;;3.17;1.50;;;;;;;21.41;37.03;96240.56;10339092;28;96909;-68
2022/05/11 19:52:49;;;;;;;4.50;1.47;;;;;;;21.29;36.97;96250.25;10337130;28;97627;-68
2022/05/11 19:58:02;;;;;;;;;;;;;;;21.20;36.85;96254.22;10334860;28;96712;-68
2022/05/11 20:03:05;;;;;;;3.92;1.70;;;;;;;21.03;36.48;96259.22;10332122;28;96927;-68
2022/05/11 20:08:09;;;;;;;3.13;1.50;;;;;;;20.94;36.18;96275.38;10337397;28;96752;-68
2022/05/11 20:13:12;;;;;;;2.90;1.45;;;;;;;20.88;36.68;96265.63;10340715;28;97261;-68
2022/05/11 20:18:18;;;;;;;3.22;1.45;;;;;;;20.80;36.94;96279.16;10345313;28;96874;-68
2022/05/11 20:23:22;;;;;;;2.95;1.70;;;;;;;20.73;37.10;96292.41;10340575;28;96924;-68
2022/05/11 20:28:26;;;;;;;5.65;1.77;;;;;;;20.63;36.36;96294.69;10340988;28;99803;-68
2022/05/11 20:38:52;;;;;;;4.78;1.70;;;;;;;20.36;37.49;96300.09;10349407;28;96852;-68
2022/05/11 20:43:55;;;;;;;6.15;1.60;;;;;;;20.25;37.42;96310.53;10346470;28;96814;-68
2022/05/11 20:48:59;;;;;;;5.57;1.67;;;;;;;20.13;37.13;96300.56;10338146;28;96991;-68
2022/05/11 20:54:04;;;;;;;3.23;1.80;;;;;;;20.00;37.27;96296.06;10343008;28;98063;-67
2022/05/11 20:59:08;;;;;;;3.83;1.63;;;;;;;19.99;37.42;96312.19;10332864;28;96975;-67
2022/05/11 21:04:11;;;;;;;3.17;1.73;;;;;;;19.88;37.34;96308.31;10333983;28;96837;-67
2022/05/11 21:09:19;;;;;;;5.70;1.95;;;;;;;19.82;37.03;96314.44;10334296;28;96880;-67
2022/05/11 21:14:22;;;;;;;;;;;;;;;19.73;37.54;96310.31;10333514;28;96944;-67
2022/05/11 21:19:25;;;;;;;3.95;2.00;;;;;;;19.74;37.29;96314.59;10332897;28;97422;-67
2022/05/11 21:24:29;;;;;;;3.40;2.03;;;;;;;19.62;38.31;96319.69;10335574;28;97847;-67
2022/05/11 21:29:32;;;;;;;2.67;1.58;;;;;;;19.60;37.74;96321.75;10331553;28;96821;-67
2022/05/11 21:34:35;;;;;;;5.20;1.73;;;;;;;19.53;38.64;96334.16;10335963;28;96791;-66
2022/05/11 21:39:40;;;;;;;2.78;1.77;;;;;;;19.45;38.79;96335.16;10323193;28;97544;-67
2022/05/11 21:44:43;;;;;;;2.80;1.60;;;;;;;19.36;38.34;96336.38;10330775;28;98335;-66
2022/05/11 21:49:46;;;;;;;5.03;1.80;;;;;;;19.28;39.03;96328.59;10325744;28;98702;-67
2022/05/11 21:54:50;;;;;;;3.22;1.70;;;;;;;19.27;39.38;96334.94;10331332;28;97143;-66
2022/05/11 21:59:56;;;;;;;3.75;2.15;;;;;;;19.23;39.64;96353.06;10329910;28;99931;-67
2022/05/11 22:05:00;;;;;;;3.15;1.90;;;;;;;19.19;39.28;96344.69;10329493;28;96921;-67
2022/05/11 22:10:06;;;;;;;4.77;2.13;;;;;;;19.16;40.11;96360.97;10326279;28;96969;-67
2022/05/11 22:15:09;;;;;;;4.38;1.98;;;;;;;19.09;40.06;96356.66;10331672;28;96820;-67
2022/05/11 22:20:14;;;;;;;4.43;1.65;;;;;;;18.93;40.26;96358.63;10313728;28;97040;-67
2022/05/11 22:25:20;;;;;;;5.75;1.92;;;;;;;18.78;40.51;96368.53;10321256;28;97152;-67
2022/05/11 22:30:28;;;;;;;3.65;1.80;;;;;;;18.62;41.26;96367.00;10325280;28;99788;-66
2022/05/11 22:35:35;;;;;;;2.33;1.70;;;;;;;18.48;40.63;96374.03;10302035;28;97171;-67
2022/05/11 22:40:40;;;;;;;2.88;1.73;;;;;;;18.34;41.51;96377.63;10315663;28;100449;-66
2022/05/11 22:45:43;;;;;;;3.03;2.10;;;;;;;18.18;42.06;96384.00;10318453;28;103083;-66
2022/05/11 22:50:49;;;;;;;2.88;1.80;;;;;;;18.09;41.61;96367.47;10315856;28;100623;-66
2022/05/11 22:55:54;;;;;;;4.65;2.00;;;;;;;17.97;41.85;96377.75;10318180;28;97822;-67
2022/05/11 23:00:57;;;;;;;4.93;2.03;;;;;;;17.90;42.26;96380.34;10323968;28;97872;-66
2022/05/11 23:06:00;;;;;;;3.67;1.98;;;;;;;17.84;42.14;96385.56;10318900;28;99008;-67
2022/05/11 23:11:05;;;;;;;5.07;2.33;;;;;;;17.78;42.92;96386.28;10319759;28;100313;-66
2022/05/11 23:16:10;;;;;;;4.20;2.15;;;;;;;17.80;43.13;96379.00;10321442;28;96883;-66
2022/05/11 23:21:13;;;;;;;2.72;1.73;;;;;;;17.79;42.58;96387.91;10320744;28;97269;-66
2022/05/11 23:26:18;;;;;;;3.58;1.80;;;;;;;17.81;43.12;96385.94;10304692;28;96825;-66
2022/05/11 23:31:21;;;;;;;2.35;1.75;;;;;;;17.85;42.81;96381.91;10321213;28;96908;-66
2022/05/11 23:36:24;;;;;;;3.40;1.60;;;;;;;17.94;42.04;96375.47;10314525;28;100664;-66
2022/05/11 23:41:29;;;;;;;5.78;1.90;;;;;;;18.12;40.99;96372.38;10318852;28;96840;-65
2022/05/11 23:46:32;;;;;;;5.15;2.00;;;;;;;18.26;41.05;96386.53;10319094;28;100559;-67
2022/05/11 23:51:35;;;;;;;3.83;1.90;;;;;;;18.29;40.82;96388.75;10327415;28;96806;-66
2022/05/11 23:56:39;;;;;;;5.75;1.67;;;;;;;18.24;41.00;96385.91;10328988;28;96867;-64
